Time;durP1;ratioP1;P1;durP2;ratioP2;P2;SDS_P1;SDS_P2;PMS_P1;PMS_P2;Temp;Humidity;BMP_temperature;BMP_pressure;BME280_temperature;BME280_humidity;BME280_pressure;Samples;Min_cycle;Max_cycle;Signal;HPM_P1;HPM_P2
2022/06/03 00:00:10;;;;;;;8.48;6.15;;;10.20;99.90;;;;;;5088423;28;20599;-66
2022/06/03 00:03:00;;;;;;;12.35;6.60;;;10.20;99.90;;;;;;5089143;28;20090;-66
2022/06/03 00:05:47;;;;;;;10.23;6.63;;;10.20;99.90;;;;;;5089730;28;20043;-66
2022/06/03 00:08:28;;;;;;;12.77;6.55;;;10.20;99.90;;;;;;5076084;28;20071;-66
2022/06/03 00:11:21;;;;;;;7.72;5.90;;;10.10;99.90;;;;;;5069896;28;20100;-66
2022/06/03 00:14:25;;;;;;;11.23;5.60;;;10.20;99.90;;;;;;5077568;28;20048;-66
2022/06/03 00:17:02;;;;;;;8.05;4.93;;;10.10;99.90;;;;;;5057785;28;20562;-66
2022/06/03 00:19:49;;;;;;;9.43;4.97;;;10.10;99.90;;;;;;5095384;28;20485;-66
2022/06/03 00:22:18;;;;;;;;;;;10.10;99.90;;;;;;5107127;27;20066;-66
2022/06/03 00:25:11;;;;;;;5.20;3.92;;;10.10;99.90;;;;;;5097008;27;22027;-66
2022/06/03 00:27:59;;;;;;;8.80;4.60;;;10.00;99.90;;;;;;5074774;28;20043;-66
2022/06/03 00:30:50;;;;;;;8.32;4.35;;;10.10;99.90;;;;;;5097575;28;20563;-66
2022/06/03 00:33:38;;;;;;;7.07;4.05;;;10.10;99.90;;;;;;5094352;28;20059;-66
2022/06/03 00:36:19;;;;;;;5.72;4.20;;;10.10;99.90;;;;;;5093799;28;20453;-66
2022/06/03 00:38:55;;;;;;;8.27;4.00;;;10.00;99.90;;;;;;5073840;28;20155;-66
2022/06/03 00:41:39;;;;;;;7.05;4.15;;;10.00;99.90;;;;;;5102997;27;20038;-68
2022/06/03 00:44:53;;;;;;;6.90;3.85;;;10.00;99.90;;;;;;5076529;28;20067;-66
2022/06/03 00:47:40;;;;;;;6.78;3.83;;;10.00;99.90;;;;;;5010157;28;20484;-66
2022/06/03 00:50:30;;;;;;;4.22;3.15;;;10.00;99.90;;;;;;5007300;28;20081;-66
2022/06/03 00:53:13;;;;;;;9.55;3.63;;;9.90;99.90;;;;;;5079764;28;20048;-66
2022/06/03 00:56:16;;;;;;;7.82;4.47;;;9.90;99.90;;;;;;5099207;27;20094;-66
2022/06/03 00:59:08;;;;;;;8.73;4.00;;;9.90;99.90;;;;;;5074369;28;20070;-66
2022/06/03 01:01:47;;;;;;;9.32;3.28;;;9.90;99.90;;;;;;5045515;28;20059;-66
2022/06/03 01:04:40;;;;;;;5.40;3.47;;;9.80;99.90;;;;;;5084965;28;20214;-66
2022/06/03 01:07:20;;;;;;;8.23;4.22;;;9.90;99.90;;;;;;5078276;28;20036;-66
2022/06/03 01:10:10;;;;;;;5.28;4.13;;;9.80;99.90;;;;;;5087353;28;20039;-66
2022/06/03 01:12:58;;;;;;;10.05;3.67;;;9.80;99.90;;;;;;5069108;28;20537;-66
2022/06/03 01:15:36;;;;;;;8.00;3.65;;;9.70;99.90;;;;;;5086134;28;20052;-66
2022/06/03 01:18:38;;;;;;;9.10;4.05;;;9.70;99.90;;;;;;5071744;28;20131;-66
2022/06/03 01:21:07;;;;;;;9.60;4.15;;;9.70;99.90;;;;;;5037269;28;20143;-66
2022/06/03 01:23:48;;;;;;;7.60;3.88;;;9.70;99.90;;;;;;5088376;28;20043;-66
2022/06/03 01:26:35;;;;;;;5.97;3.75;;;9.70;99.90;;;;;;5112374;28;20043;-66
2022/06/03 01:29:26;;;;;;;5.60;4.03;;;9.70;99.90;;;;;;5069637;28;20044;-66
2022/06/03 01:31:58;;;;;;;7.25;4.03;;;9.70;99.90;;;;;;5091331;28;20054;-66
2022/06/03 01:34:39;;;;;;;7.38;5.00;;;9.60;99.90;;;;;;5077935;28;20071;-66
2022/06/03 01:37:27;;;;;;;7.07;4.35;;;9.60;99.90;;;;;;5092148;28;20418;-66
2022/06/03 01:40:04;;;;;;;7.22;4.60;;;9.60;99.90;;;;;;5070287;28;20039;-66
2022/06/03 01:42:58;;;;;;;7.57;4.40;;;9.50;99.90;;;;;;5098379;28;20119;-66
2022/06/03 01:46:01;;;;;;;6.30;3.83;;;9.50;99.90;;;;;;5086630;28;20037;-66
2022/06/03 01:48:54;;;;;;;5.75;4.97;;;9.40;99.90;;;;;;5081879;28;20088;-66
2022/06/03 01:51:58;;;;;;;7.00;3.67;;;9.30;99.90;;;;;;5107384;28;20048;-66
2022/06/03 01:54:42;;;;;;;6.70;4.68;;;9.30;99.90;;;;;;5071903;28;20039;-66
2022/06/03 01:57:08;;;;;;;6.55;4.57;;;9.30;99.90;;;;;;5090099;28;20481;-66
2022/06/03 01:59:46;;;;;;;5.78;4.82;;;9.30;99.90;;;;;;5087890;28;20040;-66
2022/06/03 02:02:26;;;;;;;6.10;4.85;;;9.30;99.90;;;;;;5103912;28;20040;-66
2022/06/03 02:05:11;;;;;;;8.65;4.05;;;9.30;99.90;;;;;;5091611;28;20040;-66
2022/06/03 02:08:00;;;;;;;6.22;4.53;;;9.30;99.90;;;;;;5064616;28;20470;-66
2022/06/03 02:10:41;;;;;;;4.82;4.43;;;9.20;99.90;;;;;;5075927;28;20123;-66
2022/06/03 02:13:23;;;;;;;7.35;4.32;;;9.20;99.90;;;;;;5090131;28;20036;-66
2022/06/03 02:16:21;;;;;;;7.07;4.75;;;9.20;99.90;;;;;;5107500;28;20061;-66
2022/06/03 02:19:06;;;;;;;7.45;5.47;;;9.20;99.90;;;;;;5073243;28;20036;-66
2022/06/03 02:22:01;;;;;;;6.43;3.97;;;9.20;99.90;;;;;;5096196;28;20560;-66
2022/06/03 02:24:47;;;;;;;6.87;4.10;;;9.10;99.90;;;;;;5089085;28;20036;-66
2022/06/03 02:27:31;;;;;;;5.07;4.43;;;9.20;99.90;;;;;;5078940;28;20776;-66
2022/06/03 02:30:31;;;;;;;10.05;5.03;;;9.10;99.90;;;;;;5076562;28;20048;-66
2022/06/03 02:33:15;;;;;;;6.45;3.80;;;9.10;99.90;;;;;;5091227;28;20385;-66
2022/06/03 02:35:47;;;;;;;9.48;4.88;;;9.10;99.90;;;;;;5076576;28;20039;-66
2022/06/03 02:38:37;;;;;;;7.00;4.47;;;9.00;99.90;;;;;;5097005;28;20040;-66
2022/06/03 02:41:18;;;;;;;4.90;4.40;;;9.00;99.90;;;;;;5071326;28;20074;-66
2022/06/03 02:43:58;;;;;;;9.80;4.57;;;9.00;99.90;;;;;;5076502;28;20051;-66
2022/06/03 02:46:38;;;;;;;8.02;4.53;;;9.00;99.90;;;;;;5075110;28;20126;-66
2022/06/03 02:49:19;;;;;;;6.82;4.35;;;9.00;99.90;;;;;;5089306;28;20035;-66
2022/06/03 02:51:57;;;;;;;6.35;4.57;;;9.00;99.90;;;;;;5102544;28;20066;-66
2022/06/03 02:54:31;;;;;;;8.35;4.82;;;8.90;99.90;;;;;;5092110;28;20130;-66
2022/06/03 02:57:33;;;;;;;7.82;4.95;;;9.00;99.90;;;;;;5084425;28;20044;-66
2022/06/03 03:00:11;;;;;;;6.35;4.55;;;8.90;99.90;;;;;;5095985;28;20043;-66
2022/06/03 03:02:56;;;;;;;7.22;5.00;;;9.00;99.90;;;;;;5076034;28;20044;-66
2022/06/03 03:05:40;;;;;;;7.85;5.28;;;9.00;99.90;;;;;;5076122;28;20040;-66
2022/06/03 03:08:09;;;;;;;8.48;5.40;;;9.00;99.90;;;;;;5081034;28;20169;-66
2022/06/03 03:11:08;;;;;;;6.63;5.07;;;9.00;99.90;;;;;;5077912;28;20130;-66
2022/06/03 03:14:12;;;;;;;5.32;4.82;;;9.00;99.90;;;;;;5092756;28;20040;-66
2022/06/03 03:17:07;;;;;;;5.43;4.63;;;9.00;99.90;;;;;;5096183;28;20039;-66
2022/06/03 03:19:45;;;;;;;5.68;4.95;;;9.00;99.90;;;;;;5077079;28;20043;-66
2022/06/03 03:22:22;;;;;;;9.30;5.28;;;9.00;99.90;;;;;;5070089;28;20041;-66
2022/06/03 03:25:12;;;;;;;6.55;5.40;;;9.00;99.90;;;;;;5086965;28;20036;-66
2022/06/03 03:28:10;;;;;;;7.53;5.40;;;9.00;99.90;;;;;;5074934;28;20035;-66
2022/06/03 03:31:01;;;;;;;9.40;6.22;;;8.90;99.90;;;;;;5063902;28;20048;-66
2022/06/03 03:34:17;;;;;;;7.22;5.30;;;9.00;99.90;;;;;;5091850;28;20059;-65
2022/06/03 03:37:18;;;;;;;17.88;5.53;;;9.00;99.90;;;;;;5092583;28;20062;-66
2022/06/03 03:40:02;;;;;;;8.38;5.85;;;9.00;99.90;;;;;;5090592;28;20557;-66
2022/06/03 03:43:09;;;;;;;12.25;6.30;;;9.00;99.90;;;;;;5075112;28;20681;-66
2022/06/03 03:46:04;;;;;;;7.53;5.57;;;9.10;99.90;;;;;;5089973;28;20075;-66
2022/06/03 03:48:51;;;;;;;6.78;5.68;;;9.10;99.90;;;;;;4979433;28;20049;-66
2022/06/03 03:51:53;;;;;;;7.75;5.78;;;9.20;99.90;;;;;;5091071;28;20037;-66
2022/06/03 03:54:49;;;;;;;6.80;5.25;;;9.30;99.90;;;;;;5073238;28;20040;-66
2022/06/03 03:57:23;;;;;;;7.57;5.73;;;9.40;99.90;;;;;;5073933;28;20476;-66
2022/06/03 03:59:49;;;;;;;6.50;5.47;;;9.50;99.90;;;;;;5072405;28;20300;-66
2022/06/03 04:02:48;;;;;;;6.38;5.70;;;9.60;99.90;;;;;;5072524;28;20036;-66
2022/06/03 04:05:42;;;;;;;4.65;4.18;;;9.70;99.90;;;;;;5071447;28;20108;-66
2022/06/03 04:08:26;;;;;;;4.90;4.40;;;9.90;99.90;;;;;;5089416;28;20042;-66
2022/06/03 04:11:16;;;;;;;8.10;4.78;;;10.10;99.90;;;;;;5080094;28;20490;-66
2022/06/03 04:14:06;;;;;;;6.00;4.60;;;10.40;99.90;;;;;;5073618;28;20039;-66
2022/06/03 04:16:50;;;;;;;4.78;4.10;;;10.60;99.90;;;;;;5091460;28;20036;-66
2022/06/03 04:20:00;;;;;;;3.92;3.10;;;11.20;99.90;;;;;;5102053;27;20036;-66
2022/06/03 04:22:48;;;;;;;8.35;3.50;;;11.70;99.90;;;;;;5073093;28;20036;-66
2022/06/03 04:25:56;;;;;;;6.47;3.75;;;12.00;99.90;;;;;;5068419;28;20043;-66
2022/06/03 04:28:48;;;;;;;3.63;3.03;;;13.10;99.90;;;;;;5066817;28;20097;-66
2022/06/03 04:31:51;;;;;;;8.25;3.13;;;14.50;99.90;;;;;;5063419;28;20078;-66
2022/06/03 04:35:00;;;;;;;4.35;2.70;;;16.00;99.90;;;;;;5102061;27;20135;-66
2022/06/03 04:37:45;;;;;;;4.82;2.58;;;17.20;99.90;;;;;;5075625;28;20047;-66
2022/06/03 04:40:35;;;;;;;4.22;2.40;;;18.10;99.90;;;;;;5087445;28;20049;-66
2022/06/03 04:43:23;;;;;;;4.88;2.53;;;18.80;99.90;;;;;;5076263;28;20044;-66
2022/06/03 04:46:17;;;;;;;5.78;2.42;;;19.60;99.90;;;;;;5086813;28;20375;-66
2022/06/03 04:49:07;;;;;;;6.70;2.75;;;20.20;99.90;;;;;;5084287;28;20042;-66
2022/06/03 04:51:42;;;;;;;4.20;2.15;;;20.70;99.90;;;;;;5092282;28;20172;-66
2022/06/03 04:54:36;;;;;;;6.68;2.30;;;20.70;99.90;;;;;;5074647;28;20438;-66
2022/06/03 04:57:41;;;;;;;5.40;2.47;;;20.80;99.90;;;;;;5091837;28;20082;-66
2022/06/03 05:00:40;;;;;;;3.65;1.92;;;21.20;99.90;;;;;;5097027;28;20032;-66
2022/06/03 05:03:43;;;;;;;6.20;2.42;;;21.80;99.90;;;;;;5097930;28;20063;-66
2022/06/03 05:06:18;;;;;;;7.18;3.00;;;21.80;99.90;;;;;;5070297;28;20049;-66
2022/06/03 05:09:23;;;;;;;3.90;1.98;;;20.80;99.90;;;;;;5076017;28;20050;-66
2022/06/03 05:12:01;;;;;;;5.28;2.50;;;19.50;99.90;;;;;;5074053;28;20451;-66
2022/06/03 05:14:54;;;;;;;6.75;2.30;;;19.20;99.90;;;;;;5085354;28;20032;-66
2022/06/03 05:17:31;;;;;;;3.25;2.28;;;19.70;99.90;;;;;;5076497;28;20040;-66
2022/06/03 05:20:05;;;;;;;6.13;2.80;;;20.50;99.90;;;;;;5087805;28;20044;-67
2022/06/03 05:23:01;;;;;;;3.90;2.28;;;21.40;99.90;;;;;;5071152;28;20376;-67
2022/06/03 05:25:45;;;;;;;5.72;2.58;;;21.80;99.90;;;;;;5077156;28;20071;-67
2022/06/03 05:28:52;;;;;;;8.50;2.72;;;22.10;99.90;;;;;;5071915;28;20056;-66
2022/06/03 05:31:31;;;;;;;;;;;21.10;99.90;;;;;;5046868;28;20078;-66
2022/06/03 05:34:16;;;;;;;3.75;2.10;;;19.80;99.90;;;;;;5071403;28;19924;-67
2022/06/03 05:37:03;;;;;;;5.30;1.80;;;19.20;99.90;;;;;;5074411;28;20043;-67
2022/06/03 05:39:50;;;;;;;3.63;1.77;;;18.50;99.90;;;;;;5091356;28;20058;-67
2022/06/03 05:46:11;;;;;;;3.60;2.42;;;17.70;99.90;;;;;;5071908;28;21233;-67
2022/06/03 05:48:48;;;;;;;5.57;2.45;;;17.30;99.90;;;;;;5072445;28;20716;-67
2022/06/03 05:51:29;;;;;;;4.32;1.98;;;17.10;99.90;;;;;;5072628;28;20051;-67
2022/06/03 05:54:12;;;;;;;4.10;2.25;;;17.20;99.90;;;;;;5077986;28;20047;-67
2022/06/03 05:57:01;;;;;;;4.28;2.15;;;17.30;99.90;;;;;;5074923;28;20040;-67
2022/06/03 05:59:48;;;;;;;2.38;1.73;;;17.30;99.90;;;;;;5107789;28;20486;-67
2022/06/03 06:02:45;;;;;;;3.78;1.85;;;17.30;99.90;;;;;;5068882;28;20085;-67
2022/06/03 06:05:44;;;;;;;3.38;1.95;;;17.40;99.90;;;;;;5089664;28;20096;-67
2022/06/03 06:08:15;;;;;;;4.55;1.65;;;17.30;99.90;;;;;;5021400;28;20039;-67
2022/06/03 06:11:05;;;;;;;2.50;1.70;;;17.40;99.90;;;;;;5074430;28;20090;-67
2022/06/03 06:13:31;;;;;;;2.67;1.50;;;17.40;99.90;;;;;;5077175;28;20138;-67
2022/06/03 06:16:18;;;;;;;3.47;1.48;;;17.60;99.90;;;;;;5109336;27;20222;-67
2022/06/03 06:19:07;;;;;;;3.95;1.50;;;17.60;99.90;;;;;;5081565;28;20035;-67
2022/06/03 06:21:47;;;;;;;5.88;1.80;;;17.70;99.90;;;;;;5080301;28;20040;-68
2022/06/03 06:24:15;;;;;;;2.50;1.08;;;17.90;99.90;;;;;;5076764;28;20049;-68
2022/06/03 06:27:03;;;;;;;3.63;1.90;;;17.90;99.90;;;;;;5071806;28;20035;-67
2022/06/03 06:29:38;;;;;;;2.55;1.05;;;17.90;99.90;;;;;;5096871;28;20039;-67
2022/06/03 06:32:33;;;;;;;3.65;1.45;;;17.90;99.90;;;;;;5095304;28;20063;-68
2022/06/03 06:35:36;;;;;;;3.95;1.38;;;18.10;99.90;;;;;;5098888;28;20101;-68
2022/06/03 06:38:26;;;;;;;4.40;1.42;;;18.10;99.90;;;;;;5080652;28;20513;-67
2022/06/03 06:41:11;;;;;;;3.92;1.40;;;18.10;99.90;;;;;;5095608;28;20056;-67
2022/06/03 06:44:12;;;;;;;2.55;1.20;;;18.10;99.90;;;;;;5083709;28;20044;-68
2022/06/03 06:46:42;;;;;;;3.55;1.20;;;18.20;99.90;;;;;;5060843;28;20086;-68
2022/06/03 06:49:16;;;;;;;8.63;1.52;;;18.40;99.90;;;;;;5078254;28;20048;-67
2022/06/03 06:51:50;;;;;;;2.93;1.27;;;18.50;99.90;;;;;;5096447;28;20036;-68
2022/06/03 06:54:19;;;;;;;2.88;1.10;;;18.60;99.90;;;;;;5110157;27;20390;-68
2022/06/03 06:56:52;;;;;;;4.70;1.10;;;18.70;99.90;;;;;;5104227;27;20054;-68
2022/06/03 06:59:46;;;;;;;3.75;0.98;;;18.80;99.90;;;;;;5081290;28;20036;-67
2022/06/03 07:02:27;;;;;;;9.57;1.33;;;18.80;99.90;;;;;;5093596;28;20040;-67
2022/06/03 07:05:29;;;;;;;2.60;1.33;;;18.90;99.90;;;;;;5077124;28;20248;-67
2022/06/03 07:08:07;;;;;;;3.53;1.65;;;18.90;99.90;;;;;;5060791;28;20047;-67
2022/06/03 07:10:37;;;;;;;2.85;1.20;;;19.20;99.90;;;;;;5071796;28;20050;-67
2022/06/03 07:13:12;;;;;;;4.28;1.60;;;19.30;99.90;;;;;;5074064;28;20040;-67
2022/06/03 07:16:05;;;;;;;3.28;1.00;;;19.30;99.90;;;;;;5091929;28;20532;-67
2022/06/03 07:21:56;;;;;;;3.05;1.50;;;19.40;99.90;;;;;;5099122;27;20043;-67
2022/06/03 07:24:45;;;;;;;4.50;1.20;;;19.30;99.90;;;;;;5083958;28;20379;-67
2022/06/03 07:27:26;;;;;;;3.35;1.33;;;19.50;99.90;;;;;;5089427;28;20040;-66
2022/06/03 07:30:14;;;;;;;6.07;1.38;;;19.40;99.90;;;;;;5092438;28;20442;-66
2022/06/03 07:33:15;;;;;;;3.58;1.35;;;19.60;99.90;;;;;;5083665;28;20040;-67
2022/06/03 07:35:49;;;;;;;3.78;1.13;;;19.50;99.90;;;;;;5065808;28;20055;-66
2022/06/03 07:38:39;;;;;;;2.83;1.02;;;19.60;99.90;;;;;;5091391;28;20032;-67
2022/06/03 07:41:06;;;;;;;2.28;1.08;;;19.60;99.90;;;;;;5079165;28;20470;-67
2022/06/03 07:43:44;;;;;;;3.63;1.10;;;19.60;99.90;;;;;;5108581;27;20135;-67
2022/06/03 07:46:17;;;;;;;4.80;1.55;;;19.70;99.90;;;;;;5090269;28;20040;-67
2022/06/03 07:48:43;;;;;;;3.40;1.20;;;19.70;99.90;;;;;;5091984;28;20032;-67
2022/06/03 07:51:20;;;;;;;2.45;1.15;;;19.50;99.90;;;;;;5070507;28;20089;-67
2022/06/03 07:53:59;;;;;;;3.85;1.20;;;19.40;99.90;;;;;;5072403;28;20047;-67
2022/06/03 07:56:30;;;;;;;2.22;1.20;;;19.20;99.90;;;;;;5070597;28;20040;-67
2022/06/03 07:58:59;;;;;;;4.82;1.20;;;19.30;99.90;;;;;;5067406;28;20044;-67
2022/06/03 08:01:28;;;;;;;1.90;0.90;;;19.60;99.90;;;;;;5072103;28;20054;-67
2022/06/03 08:03:54;;;;;;;2.80;1.33;;;19.60;99.90;;;;;;5091462;28;20447;-67
2022/06/03 08:06:31;;;;;;;3.45;1.30;;;19.70;99.90;;;;;;5076243;28;20048;-67
2022/06/03 08:11:50;;;;;;;2.42;1.50;;;20.00;99.90;;;;;;5036843;28;20044;-67
2022/06/03 08:14:26;;;;;;;2.83;1.50;;;19.90;99.90;;;;;;5093428;28;20044;-67
2022/06/03 08:16:52;;;;;;;5.07;1.67;;;20.00;99.90;;;;;;5109794;27;20040;-67
2022/06/03 08:19:21;;;;;;;2.28;1.27;;;20.10;99.90;;;;;;5071629;28;20096;-67
2022/06/03 08:21:53;;;;;;;2.97;1.67;;;20.20;99.90;;;;;;5073075;28;20039;-67
2022/06/03 08:24:23;;;;;;;4.40;1.73;;;20.30;99.90;;;;;;5064967;28;20433;-67
2022/06/03 08:26:56;;;;;;;4.03;1.70;;;20.50;99.90;;;;;;5083014;28;20457;-67
2022/06/03 08:29:36;;;;;;;2.58;1.40;;;20.30;99.90;;;;;;5107809;27;20075;-67
2022/06/03 08:32:28;;;;;;;4.78;1.60;;;20.40;99.90;;;;;;5090316;28;20060;-67
2022/06/03 08:34:55;;;;;;;5.25;2.00;;;20.60;99.90;;;;;;5090226;28;20044;-67
2022/06/03 08:37:33;;;;;;;4.28;1.48;;;20.60;99.90;;;;;;5093509;28;20040;-67
2022/06/03 08:40:02;;;;;;;2.90;1.50;;;20.70;99.90;;;;;;5075102;28;20039;-66
2022/06/03 08:42:35;;;;;;;3.15;2.03;;;20.70;99.90;;;;;;5087514;28;20540;-67
2022/06/03 08:45:30;;;;;;;2.50;1.80;;;20.70;99.90;;;;;;5064122;28;20063;-67
2022/06/03 08:47:58;;;;;;;3.30;1.58;;;20.70;99.90;;;;;;5075085;28;21780;-67
2022/06/03 08:50:29;;;;;;;4.75;1.80;;;20.70;99.90;;;;;;5071161;28;20089;-67
2022/06/03 08:53:00;;;;;;;2.83;2.25;;;20.60;99.90;;;;;;5088345;28;20035;-67
2022/06/03 08:55:59;;;;;;;4.82;1.77;;;20.40;99.90;;;;;;5095618;28;20122;-67
2022/06/03 08:58:46;;;;;;;2.28;1.80;;;20.60;99.90;;;;;;5090465;28;20040;-67
2022/06/03 09:01:27;;;;;;;4.60;2.20;;;20.70;99.90;;;;;;5092787;28;20461;-67
2022/06/03 09:04:20;;;;;;;2.85;1.60;;;20.70;99.90;;;;;;5089772;28;21871;-66
2022/06/03 09:07:20;;;;;;;3.28;1.77;;;20.60;99.90;;;;;;5091994;28;20028;-67
2022/06/03 09:10:04;;;;;;;3.70;1.85;;;20.60;99.90;;;;;;5077607;28;20744;-66
2022/06/03 09:12:30;;;;;;;2.92;1.48;;;20.70;99.90;;;;;;5072071;28;20033;-67
2022/06/03 09:15:08;;;;;;;2.90;1.73;;;20.70;99.90;;;;;;5071858;28;20058;-66
2022/06/03 09:17:40;;;;;;;2.15;1.40;;;20.90;99.90;;;;;;5074663;28;20048;-67
2022/06/03 09:20:12;;;;;;;3.85;1.58;;;20.80;99.90;;;;;;5089920;28;20044;-67
2022/06/03 09:22:38;;;;;;;4.35;2.05;;;20.70;99.90;;;;;;5089995;28;20051;-66
2022/06/03 09:25:06;;;;;;;3.00;1.60;;;20.50;99.90;;;;;;5070332;28;20101;-67
2022/06/03 09:27:34;;;;;;;2.78;1.60;;;20.70;99.90;;;;;;5088571;28;20113;-67
2022/06/03 09:30:03;;;;;;;4.25;1.80;;;20.80;99.90;;;;;;5098649;28;20111;-67
2022/06/03 09:32:37;;;;;;;11.55;1.70;;;21.00;99.90;;;;;;5102193;28;20039;-66
2022/06/03 09:35:08;;;;;;;4.50;1.63;;;21.10;99.90;;;;;;5102793;28;20112;-66
2022/06/03 09:37:38;;;;;;;4.45;1.40;;;21.20;99.90;;;;;;5096044;28;20096;-67
2022/06/03 09:40:09;;;;;;;3.22;1.08;;;21.20;99.90;;;;;;5074443;28;20044;-67
2022/06/03 09:42:37;;;;;;;3.78;1.98;;;21.10;99.90;;;;;;5091051;28;20047;-67
2022/06/03 09:45:05;;;;;;;7.28;2.67;;;20.90;99.50;;;;;;5095876;28;20048;-67
2022/06/03 09:47:32;;;;;;;2.78;1.42;;;20.80;99.90;;;;;;5070164;28;20064;-67
2022/06/03 09:49:58;;;;;;;2.22;1.95;;;20.80;99.90;;;;;;5077469;28;20067;-67
2022/06/03 09:52:26;;;;;;;1.65;1.00;;;20.70;99.90;;;;;;5110435;27;20039;-66
2022/06/03 09:54:54;;;;;;;2.78;1.40;;;20.80;99.90;;;;;;5066998;28;20036;-67
2022/06/03 09:57:36;;;;;;;4.13;1.20;;;20.90;99.90;;;;;;5057739;28;20036;-67
2022/06/03 10:00:13;;;;;;;2.13;1.38;;;21.10;99.90;;;;;;5095533;28;20131;-67
2022/06/03 10:02:41;;;;;;;3.17;1.10;;;21.10;99.90;;;;;;5064229;28;20032;-66
2022/06/03 10:05:08;;;;;;;5.28;1.90;;;21.00;99.90;;;;;;5102798;27;20067;-67
2022/06/03 10:07:34;;;;;;;3.78;1.40;;;21.10;99.90;;;;;;5070051;28;20036;-67
2022/06/03 10:12:50;;;;;;;3.63;1.35;;;21.10;99.90;;;;;;5111776;27;20039;-67
2022/06/03 10:15:40;;;;;;;2.22;1.50;;;21.40;99.90;;;;;;5091067;28;20413;-67
2022/06/03 10:18:14;;;;;;;4.10;2.08;;;21.50;99.90;;;;;;5096711;28;21681;-67
2022/06/03 10:20:41;;;;;;;3.20;1.33;;;21.50;99.90;;;;;;5090752;28;20362;-67
2022/06/03 10:23:08;;;;;;;5.05;1.60;;;21.40;99.90;;;;;;5054537;28;20035;-67
2022/06/03 10:26:26;;;;;;;4.38;1.40;;;21.40;99.90;;;;;;5071259;28;20059;-67
2022/06/03 10:28:55;;;;;;;4.35;1.92;;;21.50;99.90;;;;;;5093065;28;20039;-67
2022/06/03 10:31:28;;;;;;;1.65;1.27;;;21.40;99.90;;;;;;5091463;28;20036;-67
2022/06/03 10:33:56;;;;;;;3.50;1.35;;;21.40;99.90;;;;;;5106274;27;20032;-67
2022/06/03 10:36:35;;;;;;;4.05;1.70;;;21.30;99.60;;;;;;5074699;28;20069;-67
2022/06/03 10:39:01;;;;;;;3.15;1.15;;;21.40;99.90;;;;;;5094910;28;20039;-67
2022/06/03 10:41:32;;;;;;;4.80;1.40;;;21.30;99.10;;;;;;5091421;28;20028;-67
2022/06/03 10:43:57;;;;;;;3.35;1.65;;;21.30;99.90;;;;;;5074714;28;20039;-67
2022/06/03 10:46:24;;;;;;;3.05;1.40;;;21.40;99.90;;;;;;5093332;28;20035;-67
2022/06/03 10:48:52;;;;;;;4.32;2.25;;;21.30;99.50;;;;;;5078273;28;20048;-67
2022/06/03 11:02:36;;;;;;;2.08;1.50;;;21.10;99.90;;;;;;5088385;28;20123;-67
2022/06/03 11:05:22;;;;;;;2.47;1.40;;;21.40;99.90;;;;;;5088771;28;20506;-67
2022/06/03 11:08:07;;;;;;;2.13;1.02;;;21.50;99.90;;;;;;5094521;28;20055;-67
2022/06/03 11:10:40;;;;;;;2.72;1.23;;;21.50;99.90;;;;;;5072893;28;20142;-67
2022/06/03 11:13:09;;;;;;;3.05;1.23;;;21.50;99.70;;;;;;5095403;28;20036;-67
2022/06/03 11:15:36;;;;;;;3.63;1.30;;;21.50;99.90;;;;;;5071617;28;20055;-67
2022/06/03 11:18:17;;;;;;;2.20;1.10;;;21.70;99.90;;;;;;5095841;28;20401;-67
2022/06/03 11:20:50;;;;;;;7.15;1.30;;;21.70;99.60;;;;;;5087503;28;20044;-67
2022/06/03 11:23:17;;;;;;;2.58;1.08;;;21.80;99.90;;;;;;5080972;28;20068;-67
2022/06/03 11:25:46;;;;;;;4.57;1.80;;;22.00;99.90;;;;;;5072142;28;20056;-67
2022/06/03 11:28:14;;;;;;;1.88;1.10;;;22.00;99.90;;;;;;5077621;28;20046;-66
2022/06/03 11:30:52;;;;;;;6.05;1.08;;;21.90;99.90;;;;;;5073066;28;20047;-66
2022/06/03 11:33:42;;;;;;;4.93;1.10;;;22.00;99.30;;;;;;5091689;28;20048;-67
2022/06/03 11:36:35;;;;;;;1.75;0.95;;;22.00;99.40;;;;;;5073022;28;20039;-66
2022/06/03 11:39:07;;;;;;;2.00;1.00;;;21.90;98.50;;;;;;5075687;28;20044;-67
2022/06/03 11:41:57;;;;;;;5.07;2.10;;;21.80;98.70;;;;;;5073665;28;20052;-67
2022/06/03 11:44:47;;;;;;;6.32;1.65;;;21.80;99.90;;;;;;5068581;28;20139;-67
2022/06/03 11:47:37;;;;;;;2.80;1.65;;;21.80;99.90;;;;;;5088650;28;20051;-67
2022/06/03 11:50:06;;;;;;;3.78;1.25;;;21.90;99.30;;;;;;5085428;28;20445;-67
2022/06/03 11:52:31;;;;;;;4.57;1.40;;;21.80;99.90;;;;;;5104419;27;20043;-67
2022/06/03 11:54:57;;;;;;;3.40;1.90;;;21.50;99.90;;;;;;5075137;28;20040;-67
2022/06/03 11:57:23;;;;;;;3.90;1.83;;;21.50;99.90;;;;;;5092454;28;20085;-67
2022/06/03 12:00:00;;;;;;;2.10;1.30;;;21.60;99.90;;;;;;5090379;28;20028;-67
2022/06/03 12:02:49;;;;;;;1.60;1.50;;;21.60;99.90;;;;;;5077054;28;20097;-67
2022/06/03 12:05:24;;;;;;;2.63;1.30;;;21.70;99.90;;;;;;5075190;28;20067;-67
2022/06/03 12:07:59;;;;;;;2.83;1.25;;;21.60;99.60;;;;;;5097616;28;20539;-67
2022/06/03 12:13:14;;;;;;;2.20;1.40;;;21.50;99.60;;;;;;5103519;27;20089;-67
2022/06/03 12:14:29;;;;;;;3.97;1.23;;;21.40;99.90;;;;;;5093715;28;20044;-67
2022/06/03 12:17:19;;;;;;;3.60;1.48;;;21.40;99.60;;;;;;5092063;28;20047;-67
2022/06/03 12:19:47;;;;;;;5.20;1.73;;;21.40;99.90;;;;;;5083359;28;20082;-67
2022/06/03 12:22:31;;;;;;;2.95;1.67;;;21.20;99.20;;;;;;5092142;28;20199;-67
2022/06/03 12:25:02;;;;;;;3.35;1.95;;;21.30;99.90;;;;;;5073872;28;20555;-67
2022/06/03 12:27:37;;;;;;;3.47;1.77;;;21.40;98.60;;;;;;5088227;28;20078;-67
2022/06/03 12:30:13;;;;;;;2.70;1.35;;;21.30;98.00;;;;;;5093123;28;20085;-67
2022/06/03 12:32:46;;;;;;;3.63;1.23;;;21.30;98.40;;;;;;5071787;28;20517;-67
2022/06/03 12:35:43;;;;;;;1.10;1.00;;;21.40;99.40;;;;;;5109087;27;20039;-67
2022/06/03 12:38:21;;;;;;;5.53;1.17;;;21.60;99.90;;;;;;5061581;28;20051;-66
2022/06/03 12:40:59;;;;;;;4.43;1.40;;;21.70;99.90;;;;;;5066682;28;20098;-66
2022/06/03 12:43:28;;;;;;;6.63;1.25;;;21.60;99.10;;;;;;5070895;28;20055;-66
2022/06/03 12:46:03;;;;;;;1.20;1.08;;;21.60;99.70;;;;;;5072632;28;20048;-66
2022/06/03 12:48:45;;;;;;;1.77;1.20;;;21.60;99.90;;;;;;5095529;28;20035;-66
2022/06/03 12:51:17;;;;;;;3.80;1.00;;;21.60;99.90;;;;;;5077258;28;20080;-68
2022/06/03 12:53:45;;;;;;;2.30;1.45;;;21.70;99.90;;;;;;5092660;28;20097;-67
2022/06/03 12:56:33;;;;;;;2.10;1.10;;;21.70;99.90;;;;;;5076154;28;20047;-67
2022/06/03 12:59:23;;;;;;;3.67;1.00;;;21.70;99.90;;;;;;5079945;28;20078;-67
2022/06/03 13:02:13;;;;;;;6.68;1.80;;;21.70;99.90;;;;;;5073073;28;20046;-68
2022/06/03 13:04:44;;;;;;;5.45;0.98;;;21.90;99.90;;;;;;5063654;28;20174;-67
2022/06/03 13:07:31;;;;;;;8.25;1.40;;;21.90;99.90;;;;;;5097952;28;20195;-67
2022/06/03 13:10:02;;;;;;;1.15;0.80;;;21.80;98.50;;;;;;5061641;28;20693;-67
2022/06/03 13:12:45;;;;;;;1.85;0.80;;;21.70;99.40;;;;;;5091838;28;20039;-68
2022/06/03 13:15:17;;;;;;;3.50;1.20;;;21.80;99.10;;;;;;5074702;28;20126;-67
2022/06/03 13:18:13;;;;;;;2.20;1.10;;;21.70;98.60;;;;;;5075446;28;21438;-67
2022/06/03 13:20:46;;;;;;;2.53;0.98;;;21.60;98.80;;;;;;5068532;28;20043;-67
2022/06/03 13:23:34;;;;;;;4.75;1.17;;;21.50;99.00;;;;;;5091010;28;20061;-67
2022/06/03 13:26:21;;;;;;;1.67;0.73;;;21.50;98.90;;;;;;5073686;28;20062;-67
2022/06/03 13:28:58;;;;;;;14.75;1.40;;;21.60;99.40;;;;;;5085557;28;20082;-67
2022/06/03 13:31:39;;;;;;;11.40;1.45;;;21.70;98.60;;;;;;5071644;28;20032;-67
2022/06/03 13:34:10;;;;;;;0.95;0.65;;;21.60;98.80;;;;;;5088095;28;20717;-67
2022/06/03 13:36:51;;;;;;;1.05;0.70;;;21.70;99.90;;;;;;5074890;28;20043;-67
2022/06/03 13:39:29;;;;;;;3.72;1.23;;;21.80;98.50;;;;;;5092856;28;20048;-68
2022/06/03 13:45:18;;;;;;;1.10;0.63;;;21.70;99.50;;;;;;5081663;28;20040;-67
2022/06/03 13:47:51;;;;;;;2.92;0.75;;;21.70;99.70;;;;;;5075161;28;20497;-67
2022/06/03 13:50:32;;;;;;;1.92;1.08;;;21.80;98.10;;;;;;5071409;28;20046;-67
2022/06/03 13:53:02;;;;;;;2.55;1.25;;;21.90;99.60;;;;;;5072335;28;20044;-67
2022/06/03 13:55:37;;;;;;;3.92;0.63;;;21.90;98.50;;;;;;5104093;28;20048;-66
2022/06/03 13:58:16;;;;;;;1.10;0.70;;;21.80;98.10;;;;;;5070185;28;20094;-66
2022/06/03 14:00:54;;;;;;;1.30;0.75;;;21.80;99.20;;;;;;5090211;28;20032;-67
2022/06/03 14:03:31;;;;;;;1.08;0.50;;;21.80;98.80;;;;;;5090246;28;20048;-67
2022/06/03 14:06:18;;;;;;;1.52;0.60;;;21.80;98.70;;;;;;5056863;28;20047;-66
2022/06/03 14:08:50;;;;;;;1.10;0.60;;;21.90;99.70;;;;;;5070213;28;20598;-67
2022/06/03 14:11:41;;;;;;;4.13;1.00;;;21.90;98.10;;;;;;5091501;28;20111;-66
2022/06/03 14:14:40;;;;;;;1.17;0.55;;;21.90;98.00;;;;;;5071031;28;20068;-66
2022/06/03 14:17:28;;;;;;;2.25;1.20;;;21.90;97.80;;;;;;5089621;28;21029;-67
2022/06/03 14:20:11;;;;;;;1.67;0.80;;;21.50;97.70;;;;;;5090687;28;20031;-67
2022/06/03 14:22:51;;;;;;;4.90;0.80;;;21.50;98.50;;;;;;5075804;28;20032;-67
2022/06/03 14:25:24;;;;;;;2.40;0.75;;;21.40;98.10;;;;;;5073316;28;20040;-66
2022/06/03 14:28:07;;;;;;;2.17;1.25;;;21.40;97.50;;;;;;5105224;28;20043;-67
2022/06/03 14:30:52;;;;;;;2.20;1.20;;;21.40;97.10;;;;;;5078519;28;20040;-66
2022/06/03 14:33:22;;;;;;;2.95;1.08;;;21.50;97.90;;;;;;5114258;27;20573;-67